Latest Coastal Weather Observations for Middle Percy Island

IDQ60701

Issued at 6:42 am EST Saturday 22 July 2017 (issued every 10 minutes, with the page automatically refreshed every 10 minutes)

About coastal observations | Map of coastal stations | Coastal observations for QLD | Marine services | Other Formats
Station Details ID: 200001 Name: MIDDLE PERCY ISLAND Lat: -21.66 Lon: 150.27 Height: 208.7 m
Data from the previous 72 hours. | See also: Recent months at Middle Percy Island
Date/Time
EST
Temp
°C
Wind Pressure Rain since
9am
mm
Weather Cloud Vis
km
Sea
Height
m
Swell
Dir  Spd
kts
Gust
kts
hPa Trend Height
m
Period
s
Dir
22/06:30am 16.4 SE 10 15 1020.8 - - - - - - - - -
22/06:00am 16.7 SE 10 14 1020.4 - - - - - - - - -
22/05:30am 16.6 SE 10 14 1020.0 - - - - - - - - -
22/05:00am 16.5 SE 11 15 1019.6 - - - - - - - - -
22/04:30am 16.5 SE 11 15 1019.4 - - - - - - - - -
22/04:00am 16.0 SE 8 13 1019.3 - - - - - - - - -
22/03:30am 16.0 SSE 8 11 1019.3 - - - - - - - - -
22/03:00am 15.9 SSE 7 10 1019.5 - 0.0 - - - - - - -
22/02:30am 15.9 SSE 7 10 1019.6 - - - - - - - - -
22/02:00am 15.7 SSE 7 9 1019.6 - - - - - - - - -
22/01:30am 16.1 SSE 9 13 1019.7 - - - - - - - - -
22/01:00am 16.1 SSE 8 9 1019.9 - - - - - - - - -
22/12:30am 15.8 SSE 6 8 1020.1 - - - - - - - - -
22/12:00am 16.1 SE 6 7 1020.3 - - - - - - - - -
 
Date/Time
EST
Temp
°C
Wind Pressure Rain since
9am
mm
Weather Cloud Vis
km
Sea
Height
m
Swell
Dir  Spd
kts
Gust
kts
hPa Trend Height
m
Period
s
Dir
21/11:30pm 16.2 ESE 6 9 1020.5 - - - - - - - - -
21/11:00pm 15.8 ESE 5 7 1020.6 - - - - - - - - -
21/10:30pm 16.6 ESE 7 10 1020.7 - - - - - - - - -
21/10:00pm 16.4 ESE 6 9 1020.8 - - - - - - - - -
21/09:30pm 16.8 ESE 7 11 1020.8 - - - - - - - - -
21/09:00pm 16.5 ESE 6 9 1020.6 - 0.0 - - - - - - -
21/08:30pm 16.5 ESE 6 9 1020.4 - - - - - - - - -
21/08:00pm 16.5 ESE 7 10 1020.1 - - - - - - - - -
21/07:30pm 16.8 E 7 9 1019.7 - - - - - - - - -
21/07:00pm 16.6 E 6 8 1019.3 - - - - - - - - -
21/06:30pm 16.5 E 6 7 1018.9 - - - - - - - - -
21/06:00pm 16.8 ENE 6 8 1018.4 - - - - - - - - -
21/05:30pm 16.6 ENE 5 7 1018.1 - - - - - - - - -
21/05:00pm 17.9 ENE 3 5 1018.0 - - - - - - - - -
21/04:30pm 18.6 E 3 4 1017.7 - - - - - - - - -
21/04:00pm 19.1 ESE 3 5 1017.5 - - - - - - - - -
21/03:30pm 19.0 ESE 4 6 1017.5 - - - - - - - - -
21/03:00pm 19.1 SE 5 7 1017.4 - - - - - - - - -
21/02:30pm 19.0 SSE 6 9 1017.5 - - - - - - - - -
21/02:00pm 19.4 S 6 9 1017.5 - - - - - - - - -
21/01:30pm 18.7 SSE 8 11 1017.7 - - - - - - - - -
21/01:00pm 18.8 SSE 10 13 1018.0 - 0.0 - - - - - - -
21/12:30pm 18.8 S 10 14 1018.1 - 0.0 - - - - - - -
21/12:00pm 18.3 SSE 12 16 1018.3 - 0.0 - - - - - - -
21/11:30am 18.3 SSE 13 17 1018.5 - 0.0 - - - - - - -
21/11:00am 18.4 S 12 15 1019.0 - 0.0 - - - - - - -
21/10:30am 18.0 S 13 18 1019.4 - 0.0 - - - - - - -
21/10:00am 18.0 S 14 18 1020.1 - 0.0 - - - - - - -
21/09:30am 18.0 S 14 20 1020.1 - 0.0 - - - - - - -
21/09:00am 17.7 S 11 14 1019.7 - 0.0 - - - - - - -
21/08:30am 17.3 S 12 16 1019.2 - 0.0 - - - - - - -
21/08:00am 16.9 S 11 15 1018.9 - 0.0 - - - - - - -
21/07:30am 16.5 S 11 17 1018.8 - 0.0 - - - - - - -
21/07:00am 16.6 S 9 13 1018.7 - 0.0 - - - - - - -
21/06:30am 16.2 SSW 6 11 1018.5 - 0.0 - - - - - - -
21/06:00am 16.4 S 5 8 1018.3 - 0.0 - - - - - - -
21/05:30am 16.0 SSW 5 8 1018.1 - 0.0 - - - - - - -
21/05:00am 15.7 SSW 3 6 1017.7 - 0.0 - - - - - - -
21/04:30am 15.9 SSW 5 6 1017.4 - 0.0 - - - - - - -
21/04:00am 16.1 SW 4 6 1017.5 - 0.0 - - - - - - -
21/03:30am 15.7 SSW 4 5 1017.5 - 0.0 - - - - - - -
21/03:00am 16.0 SW 3 4 1017.6 - 0.0 - - - - - - -
21/02:30am 15.8 S 2 3 1017.5 - 0.0 - - - - - - -
21/02:00am 16.1 NE 3 4 1017.3 - 0.0 - - - - - - -
21/01:30am 15.6 NNE 5 7 1017.5 - 0.0 - - - - - - -
21/01:00am 15.2 NNE 6 7 1018.0 - 0.0 - - - - - - -
21/12:30am 15.5 NNE 5 6 1018.3 - 0.0 - - - - - - -
21/12:00am 15.6 NNE 6 7 1018.5 - 0.0 - - - - - - -
 
Date/Time
EST
Temp
°C
Wind Pressure Rain since
9am
mm
Weather Cloud Vis
km
Sea
Height
m
Swell
Dir  Spd
kts
Gust
kts
hPa Trend Height
m
Period
s
Dir
20/11:30pm 15.2 NNE 8 9 1018.4 - 0.0 - - - - - - -
20/11:00pm 15.9 NNE 7 9 1018.7 - 0.0 - - - - - - -
20/10:30pm 15.3 NNE 8 9 1018.6 - 0.0 - - - - - - -
20/10:00pm 15.6 NNE 8 11 1018.7 - 0.0 - - - - - - -
20/09:30pm 15.6 NE 8 10 1018.7 - 0.0 - - - - - - -
20/09:00pm 15.2 NE 6 7 1018.7 - 0.0 - - - - - - -
20/08:30pm 15.4 NE 5 6 1018.5 - 0.0 - - - - - - -
20/08:00pm 15.8 NE 3 4 1018.4 - 0.0 - - - - - - -
20/07:30pm 15.6 NE 3 5 1018.1 - 0.0 - - - - - - -
20/07:00pm 15.4 ENE 4 5 1017.7 - 0.0 - - - - - - -
20/06:30pm 15.3 ENE 4 5 1017.6 - 0.0 - - - - - - -
20/06:00pm 15.1 E 5 6 1017.3 - 0.0 - - - - - - -
20/05:30pm 15.5 E 5 6 1017.2 - 0.0 - - - - - - -
20/05:00pm 16.4 E 4 6 1016.8 - 0.0 - - - - - - -
20/04:30pm 17.0 ESE 4 6 1016.7 - 0.0 - - - - - - -
20/04:00pm 17.4 SE 5 7 1016.8 - 0.0 - - - - - - -
20/03:30pm 17.7 SSE 6 8 1016.9 - 0.0 - - - - - - -
20/03:00pm 17.7 SSE 7 11 1016.8 - 0.0 - - - - - - -
20/02:30pm 17.4 SSE 10 13 1016.8 - 0.0 - - - - - - -
20/02:00pm 17.2 S 10 13 1017.0 - 0.0 - - - - - - -
20/01:30pm 17.1 S 11 15 1017.1 - 0.0 - - - - - - -
20/01:00pm 17.0 SSE 13 17 1017.4 - 0.0 - - - - - - -
20/12:30pm 16.7 SSE 15 19 1017.7 - 0.0 - - - - - - -
20/12:00pm 17.1 S 14 19 1018.0 - 0.0 - - - - - - -
20/11:30am 16.9 S 15 20 1018.4 - 0.0 - - - - - - -
20/11:00am 16.5 S 15 21 1018.9 - 0.0 - - - - - - -
20/10:30am 16.7 S 14 22 1019.1 - 0.0 - - - - - - -
20/10:00am 16.0 S 18 25 1019.1 - 0.0 - - - - - - -
20/09:30am 15.9 S 17 25 1019.2 - 0.0 - - - - - - -
20/09:00am 15.6 S 18 25 1018.9 - 0.0 - - - - - - -
20/08:30am 15.6 S 16 23 1019.0 - 0.0 - - - - - - -
20/08:00am 15.4 S 20 25 1018.6 - 0.0 - - - - - - -
20/07:30am 15.3 S 18 27 1018.5 - 0.0 - - - - - - -
20/07:00am 15.3 S 18 27 1018.1 - 0.0 - - - - - - -
20/06:30am 15.5 S 19 26 1017.7 - 0.0 - - - - - - -
20/06:00am 16.1 S 17 24 1017.4 - 0.0 - - - - - - -
20/05:30am 16.3 S 18 25 1017.1 - 0.0 - - - - - - -
20/05:00am 16.6 S 19 26 1016.5 - 0.0 - - - - - - -
20/04:30am 16.8 S 17 23 1016.5 - 0.0 - - - - - - -
20/04:00am 17.1 SSE 17 22 1016.5 - 0.0 - - - - - - -
20/03:30am 17.4 S 16 22 1016.5 - 0.0 - - - - - - -
20/03:00am 17.4 S 13 18 1016.7 - 0.0 - - - - - - -
20/02:30am 17.6 SSE 14 19 1016.8 - 0.0 - - - - - - -
20/02:00am 17.7 S 10 15 1017.0 - 0.0 - - - - - - -
20/01:30am 18.1 S 14 17 1017.0 - 0.0 - - - - - - -
20/01:00am 18.5 S 17 21 1016.9 - 0.0 - - - - - - -
20/12:30am 18.5 S 15 22 1017.2 - 0.0 - - - - - - -
20/12:00am 18.9 S 14 20 1017.3 - 0.0 - - - - - - -
 
Date/Time
EST
Temp
°C
Wind Pressure Rain since
9am
mm
Weather Cloud Vis
km
Sea
Height
m
Swell
Dir  Spd
kts
Gust
kts
hPa Trend Height
m
Period
s
Dir
19/11:30pm 18.9 S 14 20 1017.4 - 0.0 - - - - - - -
19/11:00pm 19.2 S 16 20 1017.6 - 0.0 - - - - - - -
19/10:30pm 19.6 S 16 23 1017.6 - 0.0 - - - - - - -
19/10:00pm 20.2 S 19 25 1017.4 - 0.0 - - - - - - -
19/09:30pm 20.3 SSW 15 21 1017.3 - 0.0 - - - - - - -
19/09:00pm 20.8 S 17 24 1017.0 - 0.0 - - - - - - -
19/08:30pm 21.4 S 19 28 1016.3 - 0.0 - - - - - - -
19/08:00pm 21.1 S 15 21 1016.0 - 0.0 - - - - - - -
19/07:30pm 21.4 S 16 21 1015.6 - 0.0 - - - - - - -
19/07:00pm 21.3 S 14 18 1015.3 - 0.0 - - - - - - -
19/06:30pm 21.2 SSW 12 17 1014.8 - 0.0 - - - - - - -
19/06:00pm 21.6 SSW 13 17 1014.5 - 0.0 - - - - - - -
19/05:30pm 21.3 SW 9 14 1014.3 - 0.0 - - - - - - -
19/05:00pm 21.9 SW 9 13 1014.0 - 0.0 - - - - - - -
19/04:30pm 22.3 WSW 7 11 1013.6 - 0.0 - - - - - - -
19/04:00pm 22.5 SW 7 9 1013.3 - 0.0 - - - - - - -
19/03:30pm 22.6 SW 8 10 1013.2 - 0.0 - - - - - - -
19/03:00pm 22.4 SW 9 13 1013.2 - 0.0 - - - - - - -
19/02:30pm 22.1 SW 13 17 1013.3 - 0.0 - - - - - - -
19/02:00pm 22.1 SW 10 14 1013.5 - 0.0 - - - - - - -
19/01:30pm 22.1 SW 12 18 1013.6 - 0.0 - - - - - - -
19/01:00pm 21.9 SW 10 14 1014.1 - 0.0 - - - - - - -
19/12:30pm 21.5 WSW 10 15 1014.7 - 0.0 - - - - - - -
19/12:00pm 21.4 WSW 9 14 1015.3 - 0.0 - - - - - - -
19/11:30am 22.0 W 6 13 1015.7 - 0.0 - - - - - - -
19/11:00am 22.2 WNW 6 11 1016.1 - 0.0 - - - - - - -
19/10:30am 21.3 NW 10 14 1016.1 - 0.0 - - - - - - -
19/10:00am 20.7 WNW 8 14 1016.6 - 0.0 - - - - - - -
19/09:30am 20.5 WNW 9 13 1017.0 - 0.0 - - - - - - -
19/09:00am 21.0 NNW 11 16 1016.5 - 0.4 - - - - - - -
19/08:30am 20.4 NNW 12 16 1016.6 - 0.4 - - - - - - -
19/08:00am 20.0 NNW 12 15 1016.5 - 0.4 - - - - - - -
19/07:30am 19.8 NNW 10 13 1016.3 - 0.4 - - - - - - -
19/07:00am 19.2 NNW 11 13 1016.2 - 0.4 - - - - - - -

Other Formats:

Comma delimited format used in spreadsheet applications
http://www.bom.gov.au/fwo/IDQ60701/IDQ60701.94372.axf

JavaScript Object Notation format (JSON) in row-major order
http://www.bom.gov.au/fwo/IDQ60701/IDQ60701.94372.json